• Join FlightAware (Why Join?)
  • Login
  • US Flag 
07:19PM EST


 

Airport Tracker/Info


-or-


 

Live Flight TrackerFlight Track Log ✈ AAY861 ✈ 25-Apr-2014 ✈ KLEX - KPIE

Flight Track Log - Related Links

Times and Time Zones

All times are in EDT time to prevent confusion due to time zone crossing. See the AAY861 flight status page for this flight to view local times or setup timezone preferences in your user account.

Time Position Orientation Groundspeed Altitude Reporting Facility
EDT Latitude Longitude Course Direction KTS MPH feet Rate Location/Type
10:27AM 38.0128 -84.6272 207° Southwest 168 193 2,500  Level Indianapolis Center
10:28AM 37.9594 -84.6614 207° Southwest 234 269 4,200 2,340 Climbing Indianapolis Center
10:29AM 37.8892 -84.6367 164° South 267 307 7,400 2,880 Climbing Indianapolis Center
10:30AM 37.8097 -84.6128 167° South 288 331 10,200 2,160 Climbing Indianapolis Center
10:31AM 37.7036 -84.5844 168° South 332 382 11,900 1,740 Climbing Indianapolis Center
10:32AM 37.5956 -84.5903 182° South 377 434 13,900 1,800 Climbing Indianapolis Center
10:33AM 37.4889 -84.5978 183° South 383 441 15,700 2,160 Climbing Indianapolis Center
10:34AM 37.3781 -84.6050 183° South 394 453 18,400 2,100 Climbing Indianapolis Center
10:35AM 37.2669 -84.6281 189° South 406 467 20,100 1,860 Climbing Indianapolis Center
10:36AM 37.1394 -84.6747 196° South 412 474 22,300 1,380 Climbing Indianapolis Center
10:38AM 37.0272 -84.7150 196° South 418 481 23,000 1,020 Climbing Indianapolis Center
10:39AM 36.9122 -84.7572 196° South 424 488 24,500 1,560 Climbing Indianapolis Center
10:40AM 36.7878 -84.7297 170° South 466 536 26,300 1,740 Climbing Indianapolis Center
10:41AM 36.6678 -84.6675 157° South 466 536 28,100 1,740 Climbing Indianapolis Center
10:42AM 36.5464 -84.6061 158° South 466 536 29,900 1,500 Climbing Indianapolis Center
10:43AM 36.4272 -84.5450 158° South 466 536 31,200 1,080 Climbing Indianapolis Center
10:44AM 36.2842 -84.4722 158° South 462 532 32,200 840 Climbing Indianapolis Center
10:45AM 36.1617 -84.4097 158° South 467 537 33,000 360 Climbing Indianapolis Center
10:46AM 36.0419 -84.3486 158° South 467 537 33,000  Level Indianapolis Center
10:47AM 35.9214 -84.2886 158° South 465 535 33,000  Level Indianapolis Center
10:48AM 35.8011 -84.2292 158° South 465 535 33,000  Level Indianapolis Center
10:49AM 35.6817 -84.1697 158° South 463 533 33,000  Level Indianapolis Center
10:50AM 35.5631 -84.1117 158° South 460 529 33,000  Level Indianapolis Center
10:51AM 35.3908 -84.0286 159° South 471 542 33,000  Level Atlanta Center
10:52AM 35.2758 -83.9725 158° South 461 531 33,000  Level Atlanta Center
10:53AM 35.1592 -83.9142 158° South 456 525 33,000  Level Atlanta Center
10:54AM 35.0422 -83.8561 158° South 456 525 33,000  Level Atlanta Center
10:55AM 34.9272 -83.7981 158° South 456 525 33,000  Level Atlanta Center
10:56AM 34.8103 -83.7428 159° South 456 525 33,000  Level Atlanta Center
10:57AM 34.6975 -83.6875 158° South 451 519 33,000  Level Atlanta Center
10:58AM 34.5803 -83.6325 159° South 446 513 33,000  Level Atlanta Center
10:59AM 34.4697 -83.5778 158° South 446 513 33,000  Level Atlanta Center
11:00AM 34.3525 -83.5231 159° South 446 513 33,000  Level Atlanta Center
11:01AM 34.2394 -83.4683 158° South 446 513 33,000  Level Atlanta Center
11:02AM 34.1244 -83.4114 158° South 446 513 33,000  Level Atlanta Center
11:03AM 34.0094 -83.3572 159° South 451 519 33,000  Level Atlanta Center
11:04AM 33.8903 -83.3056 160° South 451 519 33,000  Level Atlanta Center
11:05AM 33.7731 -83.2642 164° South 444 511 33,000  Level Atlanta Center
11:06AM 33.6664 -83.2300 165° South 438 504 33,000  Level Atlanta Center
11:07AM 33.5472 -83.1889 164° South 438 504 33,000  Level Atlanta Center
11:08AM 33.4319 -83.1478 163° South 438 504 33,000 240 Level Atlanta Center
11:09AM 33.3106 -83.1042 163° South 438 504 33,500 480 Climbing Atlanta Center
11:10AM 33.1933 -83.0683 166° South 438 504 34,000 240 Climbing Atlanta Center
11:11AM 33.0742 -83.0275 164° South 438 504 34,000  Level Atlanta Center
11:14AM 32.7656 -82.9222 164° South 437 503 34,000  Level Jacksonville Center
11:15AM 32.6489 -82.8828 164° South 437 503 34,000  Level Jacksonville Center
11:16AM 32.5278 -82.8383 163° South 442 509 34,000  Level Jacksonville Center
11:17AM 32.4108 -82.7967 163° South 437 503 34,000  Level Jacksonville Center
11:18AM 32.2917 -82.7575 164° South 437 503 34,000  Level Jacksonville Center
11:19AM 32.1706 -82.7183 165° South 442 509 34,000  Level Jacksonville Center
11:20AM 32.0536 -82.6794 164° South 442 509 34,000  Level Jacksonville Center
11:21AM 31.9303 -82.6406 165° South 447 514 34,000  Level Jacksonville Center
11:22AM 31.8072 -82.6211 172° South 447 514 34,000  Level Jacksonville Center
11:23AM 31.6861 -82.6044 173° South 446 513 34,000  Level Jacksonville Center
11:24AM 31.5650 -82.5903 174° South 446 513 34,000  Level Jacksonville Center
11:25AM 31.4394 -82.5736 174° South 441 507 34,000 -60 Level Jacksonville Center
11:26AM 31.3183 -82.5642 176° South 441 507 33,900  Descending Jacksonville Center
11:27AM 31.1972 -82.5525 175° South 446 513 34,000  Climbing Jacksonville Center
11:28AM 31.0761 -82.5361 173° South 446 513 34,000  Level Jacksonville Center
11:29AM 30.9528 -82.5244 175° South 441 507 34,000 -60 Level Jacksonville Center
11:30AM 30.8358 -82.5078 173° South 441 507 33,900 -60 Descending Jacksonville Center
11:31AM 30.7128 -82.4914 173° South 441 507 33,900  Level Jacksonville Center
11:32AM 30.5917 -82.4822 176° South 441 507 33,900  Level Jacksonville Center
11:33AM 30.4850 -82.4658 172° South 441 507 34,000  Climbing Jacksonville Center
11:34AM 30.3661 -82.4519 174° South 441 507 33,900  Descending Jacksonville Center
11:35AM 30.2447 -82.4381 174° South 441 507 34,000  Climbing Jacksonville Center
11:36AM 30.1278 -82.4242 174° South 441 507 34,000  Level Jacksonville Center
11:37AM 29.9961 -82.4033 172° South 441 507 34,000 -900 Level Jacksonville Center
11:38AM 29.8772 -82.3919 175° South 441 507 32,300 -1,920 Descending Jacksonville Center
11:39AM 29.7581 -82.3783 174° South 441 507 30,200 -2,280 Descending Jacksonville Center
11:40AM 29.6433 -82.3669 175° South 430 495 27,800 -2,160 Descending Jacksonville Center
11:41AM 29.5242 -82.3508 173° South 430 495 25,900 -1,500 Descending Jacksonville Center
11:42AM 29.4031 -82.3372 174° South 430 495 24,900 -1,080 Descending Jacksonville Center
11:43AM 29.2778 -82.3236 175° South 443 510 23,800 -1,200 Descending Jacksonville Center
11:44AM 29.1503 -82.3053 173° South 457 526 22,600 -1,500 Descending Jacksonville Center
11:45AM 29.0231 -82.2919 175° South 463 533 20,900 -2,220 Descending Jacksonville Center
11:46AM 28.9164 -82.2806 175° South 458 527 18,200 -3,480 Descending Jacksonville Center
11:47AM 28.7167 -82.2667 177° South 396 456 11,600 -3,060 Descending Tampa TRACON
11:48AM 28.6000 -82.2667 180° South 384 442 10,000 -840 Descending Tampa TRACON
11:49AM 28.5167 -82.3167 208° Southwest 372 428 10,000  Level Tampa TRACON
11:50AM 28.4833 -82.4167 249° West 322 371 10,000 -720 Level Tampa TRACON
11:51AM 28.4500 -82.5000 246° West 276 318 8,600 -1,560 Descending Tampa TRACON
11:52AM 28.4167 -82.6000 249° West 272 313 6,800 -1,620 Descending Tampa TRACON
11:53AM 28.3833 -82.6667 240° Southwest 272 313 5,200 -1,440 Descending Tampa TRACON
11:54AM 28.3167 -82.7167 213° Southwest 266 306 4,000 -600 Descending Tampa TRACON
11:55AM 28.2667 -82.7333 196° South 222 255 4,000  Level Tampa TRACON
11:56AM 28.2000 -82.7167 168° South 223 257 4,000 -300 Level Tampa TRACON
11:58AM 28.1333 -82.7000 168° South 213 245 3,500 -780 Descending Tampa TRACON
11:59AM 28.0833 -82.6833 164° South 178 205 2,400 -900 Descending Tampa TRACON
12:00PM 28.0333 -82.6667 164° South 175 201 1,700 -780 Descending Tampa TRACON
12:01PM 27.9833 -82.6833 196° South 193 222 900 -660 Descending Tampa TRACON
12:02PM 27.9333 -82.7000 196° South 139 160 400 -540 Descending Tampa TRACON
12:04PM 27.9100 -82.6875 310° West  Level Estimated
12:11PM 27.9100 -82.6875 310° West  Level Estimated